Аэропорт: Гумрак. Волгоград

ICAO: URWW

METAR:
2019/01/21 22:30
URWW 212230Z 36007MPS 9999 -SN OVC009 M05/M06 Q1013 R06/750231 TEMPO 0500 +SN RMK OBST OBSC
METAR:
2015/12/24 15:15
TAF COR TAF COR URWW 241510Z 2415/2524 30013G18MPS 9999 BKN007 SCT020CB BKN100 
      TEMPO 2415/2421 27008G13MPS 2100 -SHRA BR